Time;durP1;ratioP1;P1;durP2;ratioP2;P2;SDS_P1;SDS_P2;PMS_P1;PMS_P2;Temp;Humidity;BMP_temperature;BMP_pressure;BME280_temperature;BME280_humidity;BME280_pressure;Samples;Min_cycle;Max_cycle;Signal;HPM_P1;HPM_P2
2022/11/01 00:00:34;;;;;;;19.75;9.75;;;13.00;99.90;;;;;;5051724;28;20487;-67
2022/11/01 00:03:38;;;;;;;23.63;10.68;;;12.90;99.90;;;;;;5051402;28;20044;-66
2022/11/01 00:06:42;;;;;;;24.02;11.73;;;12.90;99.90;;;;;;5051694;28;20052;-66
2022/11/01 00:09:46;;;;;;;24.27;12.10;;;12.80;99.90;;;;;;5051685;28;20044;-66
2022/11/01 00:12:50;;;;;;;24.00;11.05;;;12.80;99.90;;;;;;5051911;28;20589;-66
2022/11/01 00:15:54;;;;;;;22.55;11.70;;;12.70;99.90;;;;;;5051326;28;20048;-66
2022/11/01 00:18:58;;;;;;;18.17;9.85;;;12.80;99.90;;;;;;5051508;28;20510;-67
2022/11/01 00:22:03;;;;;;;17.30;9.05;;;12.70;99.90;;;;;;5051167;28;20040;-67
2022/11/01 00:25:07;;;;;;;19.52;10.60;;;12.50;99.90;;;;;;5051130;28;20048;-67
2022/11/01 00:28:11;;;;;;;21.23;9.77;;;12.50;99.90;;;;;;5051628;28;20044;-67
2022/11/01 00:31:17;;;;;;;16.70;9.45;;;12.50;99.90;;;;;;5051551;28;20052;-66
2022/11/01 00:34:21;;;;;;;16.55;8.23;;;12.50;99.90;;;;;;5051113;28;20494;-66
2022/11/01 00:37:27;;;;;;;15.77;6.35;;;12.50;99.90;;;;;;5051472;28;20041;-66
2022/11/01 00:40:32;;;;;;;17.65;7.05;;;12.60;99.90;;;;;;5051176;28;20056;-66
2022/11/01 00:43:36;;;;;;;17.08;6.93;;;12.70;99.90;;;;;;5050946;28;20095;-67
2022/11/01 00:46:39;;;;;;;16.70;6.20;;;12.80;99.90;;;;;;5051165;28;20060;-67
2022/11/01 00:49:44;;;;;;;11.65;6.00;;;12.80;99.90;;;;;;5050985;28;20388;-66
2022/11/01 00:52:48;;;;;;;13.63;5.22;;;12.90;99.90;;;;;;5051085;28;20052;-66
2022/11/01 00:55:58;;;;;;;15.18;6.00;;;12.80;99.90;;;;;;5050867;28;20052;-66
2022/11/01 00:59:02;;;;;;;20.40;8.60;;;12.80;99.90;;;;;;5051753;28;20040;-66
2022/11/01 01:02:06;;;;;;;17.00;7.43;;;12.70;99.90;;;;;;5055183;28;20047;-66
2022/11/01 01:05:11;;;;;;;18.48;9.75;;;12.50;99.90;;;;;;5054552;28;20051;-66
2022/11/01 01:08:14;;;;;;;18.83;9.70;;;12.30;99.90;;;;;;5054922;28;20391;-66
2022/11/01 01:11:18;;;;;;;19.98;8.77;;;12.20;99.90;;;;;;5054610;28;20048;-67
2022/11/01 01:14:23;;;;;;;19.95;9.27;;;12.10;99.90;;;;;;5054273;28;20052;-67
2022/11/01 01:17:27;;;;;;;18.17;9.85;;;12.10;99.90;;;;;;5054727;28;20044;-67
2022/11/01 01:20:32;;;;;;;20.27;10.70;;;12.10;99.90;;;;;;5054511;28;20044;-67
2022/11/01 01:23:36;;;;;;;25.48;11.90;;;12.00;99.90;;;;;;5054309;28;20052;-67
2022/11/01 01:26:40;;;;;;;25.05;12.05;;;11.90;99.90;;;;;;5054587;28;20063;-66
2022/11/01 01:29:44;;;;;;;19.23;11.77;;;11.90;99.90;;;;;;5054403;28;20116;-66
2022/11/01 01:32:48;;;;;;;18.33;8.82;;;11.90;99.90;;;;;;5054579;28;20039;-67
2022/11/01 01:35:52;;;;;;;20.58;8.07;;;11.90;99.90;;;;;;5054127;28;20044;-67
2022/11/01 01:38:56;;;;;;;19.33;9.05;;;11.70;99.90;;;;;;5053881;28;20052;-66
2022/11/01 01:42:11;;;;;;;15.70;8.43;;;11.70;99.90;;;;;;5054316;28;20384;-66
2022/11/01 01:45:28;;;;;;;16.17;8.57;;;11.60;99.90;;;;;;5053871;28;20056;-67
2022/11/01 01:48:32;;;;;;;20.30;11.02;;;11.60;99.90;;;;;;5054149;28;20040;-67
2022/11/01 01:51:36;;;;;;;20.92;11.52;;;11.60;99.90;;;;;;5053814;28;20040;-66
2022/11/01 01:54:40;;;;;;;22.20;11.13;;;11.60;99.90;;;;;;5053802;28;20043;-66
2022/11/01 01:57:46;;;;;;;24.75;13.98;;;11.60;99.90;;;;;;5053988;28;20044;-66
2022/11/01 02:00:50;;;;;;;24.52;12.60;;;11.70;99.90;;;;;;5053783;28;20070;-66
2022/11/01 02:03:55;;;;;;;29.17;12.25;;;11.80;99.90;;;;;;5053498;28;20061;-66
2022/11/01 02:07:00;;;;;;;22.48;12.15;;;11.80;99.90;;;;;;5053679;28;20048;-66
2022/11/01 02:10:04;;;;;;;24.67;11.85;;;11.80;99.90;;;;;;5052980;28;20051;-66
2022/11/01 02:13:13;;;;;;;28.35;11.90;;;11.70;99.90;;;;;;5053678;28;20048;-67
2022/11/01 02:16:56;;;;;;;30.58;13.82;;;11.70;99.90;;;;;;5053251;28;20044;-66
2022/11/01 02:20:21;;;;;;;28.50;15.02;;;11.70;99.90;;;;;;4953061;29;20046;-66
2022/11/01 02:23:25;;;;;;;29.63;16.55;;;11.70;99.90;;;;;;4965269;28;20058;-66
2022/11/01 02:26:47;;;;;;;36.92;17.33;;;11.70;99.90;;;;;;5053194;28;20040;-67
2022/11/01 02:30:08;;;;;;;31.70;17.83;;;11.70;99.90;;;;;;5053222;28;20053;-66
2022/11/01 02:33:35;;;;;;;40.07;20.63;;;11.80;99.90;;;;;;5053023;28;20036;-66
2022/11/01 02:36:46;;;;;;;33.95;18.95;;;11.80;99.90;;;;;;5052878;28;20064;-66
2022/11/01 02:39:54;;;;;;;33.20;17.80;;;12.20;99.90;;;;;;5053044;28;20048;-66
2022/11/01 02:43:06;;;;;;;35.45;17.70;;;11.80;99.90;;;;;;5052993;28;20036;-66
2022/11/01 02:49:42;;;;;;;35.42;18.05;;;11.80;99.90;;;;;;5052986;28;20076;-66
2022/11/01 02:52:46;;;;;;;28.42;16.50;;;11.80;99.90;;;;;;5052823;28;20056;-66
2022/11/01 02:55:52;;;;;;;33.00;17.42;;;11.80;99.90;;;;;;5052609;28;20049;-66
2022/11/01 02:58:56;;;;;;;22.42;15.15;;;11.70;99.90;;;;;;5052849;28;20056;-66
2022/11/01 03:02:06;;;;;;;24.60;15.70;;;11.70;99.90;;;;;;5052402;28;20036;-66
2022/11/01 03:05:25;;;;;;;31.63;17.17;;;11.60;99.90;;;;;;5052206;28;20044;-66
2022/11/01 03:08:45;;;;;;;26.85;15.18;;;11.60;99.90;;;;;;5052727;28;20383;-66
2022/11/01 03:12:07;;;;;;;26.48;14.57;;;11.50;99.90;;;;;;5052480;28;20044;-66
2022/11/01 03:15:19;;;;;;;39.78;20.67;;;11.40;99.90;;;;;;5051916;28;20044;-66
2022/11/01 03:19:02;;;;;;;31.17;17.90;;;11.30;99.90;;;;;;5052920;28;20048;-65
2022/11/01 03:22:18;;;;;;;29.05;16.00;;;11.30;99.90;;;;;;5051938;28;20056;-66
2022/11/01 03:25:43;;;;;;;28.88;16.77;;;11.30;99.90;;;;;;5051397;28;20052;-66
2022/11/01 03:28:55;;;;;;;25.88;14.90;;;11.30;99.90;;;;;;5052104;28;20507;-66
2022/11/01 03:32:01;;;;;;;24.65;14.50;;;11.30;99.90;;;;;;5052299;28;20064;-65
2022/11/01 03:35:10;;;;;;;27.13;13.85;;;11.30;99.90;;;;;;5051790;28;20044;-66
2022/11/01 03:38:18;;;;;;;27.83;13.48;;;11.10;99.90;;;;;;5051864;28;20388;-66
2022/11/01 03:41:25;;;;;;;24.90;13.70;;;11.00;99.90;;;;;;5051692;28;20032;-66
2022/11/01 03:44:36;;;;;;;21.70;12.45;;;10.90;99.90;;;;;;5051889;28;20036;-65
2022/11/01 03:47:41;;;;;;;22.03;12.93;;;10.80;99.90;;;;;;5052511;28;20052;-65
2022/11/01 03:50:55;;;;;;;21.10;12.32;;;10.60;99.90;;;;;;5051927;28;20051;-65
2022/11/01 03:53:58;;;;;;;50.28;15.00;;;10.50;99.90;;;;;;5051586;28;20036;-65
2022/11/01 03:57:02;;;;;;;22.02;12.82;;;10.40;99.90;;;;;;5051536;28;20044;-66
2022/11/01 04:00:07;;;;;;;18.20;10.98;;;10.30;99.90;;;;;;5051645;28;20056;-65
2022/11/01 04:03:16;;;;;;;25.83;12.98;;;10.20;99.90;;;;;;5051310;28;20044;-65
2022/11/01 04:06:20;;;;;;;40.67;13.35;;;10.10;99.90;;;;;;5051325;28;20048;-66
2022/11/01 04:09:24;;;;;;;27.05;13.27;;;10.00;99.90;;;;;;5051903;28;20052;-65
2022/11/01 04:12:27;;;;;;;33.20;14.57;;;9.80;99.90;;;;;;5051601;28;20367;-66
2022/11/01 04:22:17;;;;;;;50.63;12.18;;;9.60;99.90;;;;;;5051516;28;20048;-66
2022/11/01 04:25:21;;;;;;;77.40;14.20;;;9.60;99.90;;;;;;5051021;28;20048;-65
2022/11/01 04:28:25;;;;;;;54.72;13.30;;;9.60;99.90;;;;;;5051357;28;20047;-65
2022/11/01 04:31:36;;;;;;;23.30;10.57;;;9.70;99.90;;;;;;5051305;28;20056;-66
2022/11/01 04:34:42;;;;;;;14.38;8.45;;;9.60;99.90;;;;;;5053152;28;20048;-66
2022/11/01 04:37:46;;;;;;;17.83;9.00;;;9.60;99.90;;;;;;5055225;28;20059;-65
2022/11/01 04:40:50;;;;;;;16.02;9.25;;;9.60;99.90;;;;;;5055363;28;20052;-65
2022/11/01 04:43:56;;;;;;;14.00;8.05;;;9.70;99.90;;;;;;5055425;28;20064;-65
2022/11/01 04:47:01;;;;;;;20.48;8.73;;;9.70;99.90;;;;;;5055497;28;20510;-65
2022/11/01 04:50:06;;;;;;;16.05;8.57;;;9.60;99.90;;;;;;5055197;28;20052;-65
2022/11/01 04:53:10;;;;;;;15.02;7.85;;;9.60;99.90;;;;;;5054793;28;20044;-65
2022/11/01 04:56:15;;;;;;;12.80;7.95;;;9.70;99.90;;;;;;5054032;28;20044;-65
2022/11/01 04:59:19;;;;;;;14.93;7.82;;;9.60;99.90;;;;;;5055195;28;20044;-66
2022/11/01 05:02:23;;;;;;;15.85;7.10;;;9.60;99.90;;;;;;5042726;28;20048;-66
2022/11/01 05:05:27;;;;;;;17.33;7.28;;;9.60;99.90;;;;;;5054627;28;20048;-65
2022/11/01 05:08:31;;;;;;;18.27;8.27;;;9.60;99.90;;;;;;5055176;28;20056;-64
2022/11/01 05:11:35;;;;;;;14.20;7.85;;;9.80;99.90;;;;;;5054802;28;20040;-65
2022/11/01 05:14:39;;;;;;;14.73;7.60;;;9.90;99.90;;;;;;5054667;28;20052;-65
2022/11/01 05:17:43;;;;;;;14.05;7.40;;;9.90;99.90;;;;;;5054915;28;20052;-65
2022/11/01 05:20:47;;;;;;;12.60;7.28;;;9.90;99.90;;;;;;5054979;28;20054;-66
2022/11/01 05:23:51;;;;;;;11.07;5.90;;;9.80;99.90;;;;;;5054497;28;20123;-65
2022/11/01 05:26:55;;;;;;;13.55;7.15;;;9.90;99.90;;;;;;5042161;28;20063;-65
2022/11/01 05:29:59;;;;;;;13.30;6.80;;;9.90;99.90;;;;;;5054562;28;20388;-65
2022/11/01 05:33:05;;;;;;;14.35;6.15;;;9.80;99.90;;;;;;5054451;28;20048;-65
2022/11/01 05:36:09;;;;;;;12.57;6.57;;;9.70;99.90;;;;;;5054030;28;20052;-65
2022/11/01 05:39:13;;;;;;;15.95;6.40;;;9.60;99.90;;;;;;5054379;28;20048;-65
2022/11/01 05:42:16;;;;;;;11.77;6.00;;;9.50;99.90;;;;;;5053942;28;20049;-65
2022/11/01 05:45:20;;;;;;;17.40;6.05;;;9.40;99.90;;;;;;5053513;28;20068;-65
2022/11/01 05:48:24;;;;;;;15.10;6.68;;;9.30;99.90;;;;;;5054682;28;20044;-66
2022/11/01 05:51:28;;;;;;;13.18;5.70;;;9.20;99.90;;;;;;5054213;28;20510;-65
2022/11/01 05:54:32;;;;;;;10.10;4.97;;;9.20;99.90;;;;;;5054118;28;20403;-65
2022/11/01 05:57:36;;;;;;;9.98;5.18;;;9.10;99.90;;;;;;5054022;28;20040;-66
2022/11/01 06:00:40;;;;;;;14.57;5.82;;;9.10;99.90;;;;;;5054127;28;20392;-65
2022/11/01 06:03:48;;;;;;;11.43;5.10;;;9.10;99.90;;;;;;5053875;28;20056;-66
2022/11/01 06:06:53;;;;;;;10.23;5.38;;;9.20;99.90;;;;;;5053790;28;20040;-65
2022/11/01 06:09:57;;;;;;;21.42;5.32;;;9.30;99.90;;;;;;5053757;28;20040;-65
2022/11/01 06:13:00;;;;;;;12.43;6.55;;;9.30;99.90;;;;;;5053812;28;20048;-65
2022/11/01 06:16:05;;;;;;;11.23;7.30;;;9.30;99.90;;;;;;5053417;28;20048;-65
2022/11/01 06:19:09;;;;;;;11.45;6.38;;;9.40;99.90;;;;;;5054092;28;20040;-65
2022/11/01 06:22:13;;;;;;;26.70;7.53;;;9.40;99.90;;;;;;5053729;28;20048;-65
2022/11/01 06:25:17;;;;;;;17.38;6.15;;;9.40;99.90;;;;;;5053303;28;20048;-66
2022/11/01 06:28:21;;;;;;;18.77;5.85;;;9.70;99.90;;;;;;5053195;28;20108;-65
2022/11/01 06:31:25;;;;;;;15.80;6.15;;;12.00;99.90;;;;;;5053441;28;20044;-66
2022/11/01 06:34:29;;;;;;;15.80;5.32;;;14.90;99.90;;;;;;5040845;28;20511;-65
2022/11/01 06:37:33;;;;;;;11.23;5.00;;;17.30;99.90;;;;;;5052995;28;20502;-66
2022/11/01 06:40:38;;;;;;;14.40;4.55;;;19.70;99.90;;;;;;5053287;28;20044;-66
2022/11/01 06:43:42;;;;;;;11.65;5.43;;;21.80;99.90;;;;;;5053093;28;20040;-65
2022/11/01 06:46:46;;;;;;;10.13;4.72;;;23.30;99.90;;;;;;5052948;28;20048;-66
2022/11/01 06:49:50;;;;;;;10.70;4.50;;;24.50;99.90;;;;;;5053314;28;20388;-65
2022/11/01 06:52:58;;;;;;;20.27;4.75;;;24.50;98.90;;;;;;5052934;28;20498;-65
2022/11/01 06:56:02;;;;;;;21.65;5.07;;;24.10;99.00;;;;;;5052723;28;20048;-66
2022/11/01 06:59:07;;;;;;;10.55;3.80;;;24.50;98.30;;;;;;5052658;28;20041;-66
2022/11/01 07:02:11;;;;;;;11.45;4.18;;;25.40;97.50;;;;;;5052969;28;20107;-66
2022/11/01 07:05:15;;;;;;;9.02;4.05;;;25.20;96.60;;;;;;5052724;28;20059;-66
2022/11/01 07:08:19;;;;;;;8.98;4.07;;;22.20;98.50;;;;;;5052823;28;20044;-66
2022/11/01 07:11:23;;;;;;;12.02;6.80;;;23.00;98.90;;;;;;5052661;28;20040;-66
2022/11/01 07:14:27;;;;;;;10.68;4.70;;;22.00;99.20;;;;;;5039754;28;20044;-66
2022/11/01 07:17:31;;;;;;;9.35;4.22;;;23.40;98.30;;;;;;5052177;28;20055;-66
2022/11/01 07:20:42;;;;;;;7.28;3.97;;;24.20;97.00;;;;;;5051588;28;20044;-66
2022/11/01 07:23:46;;;;;;;12.43;6.05;;;24.80;97.20;;;;;;5051889;28;20044;-66
2022/11/01 07:26:50;;;;;;;28.98;13.88;;;26.10;95.80;;;;;;5052573;28;20044;-67
2022/11/01 07:29:55;;;;;;;9.73;6.30;;;27.10;94.70;;;;;;5052344;28;20502;-66
2022/11/01 07:33:01;;;;;;;17.90;8.85;;;28.10;93.60;;;;;;5052295;28;20044;-67
2022/11/01 07:36:05;;;;;;;29.70;16.42;;;28.70;92.50;;;;;;5051824;28;20384;-66
2022/11/01 07:39:09;;;;;;;22.65;12.90;;;27.80;91.80;;;;;;5052423;28;20044;-67
2022/11/01 07:42:13;;;;;;;11.88;5.20;;;27.00;92.50;;;;;;5052147;28;20388;-66
2022/11/01 07:45:17;;;;;;;8.48;4.82;;;24.40;94.00;;;;;;5051782;28;20040;-66
2022/11/01 07:48:21;;;;;;;7.22;5.35;;;24.00;94.50;;;;;;5051904;28;20040;-66
2022/11/01 07:51:25;;;;;;;6.45;4.07;;;24.90;94.40;;;;;;5051946;28;20047;-67
2022/11/01 07:54:30;;;;;;;5.75;3.60;;;26.10;93.80;;;;;;5051574;28;20053;-67
2022/11/01 07:57:39;;;;;;;9.63;3.92;;;27.40;92.80;;;;;;5051495;28;20396;-67
2022/11/01 08:00:44;;;;;;;6.57;3.90;;;27.40;91.90;;;;;;5052268;28;20516;-67
2022/11/01 08:03:48;;;;;;;6.07;3.92;;;28.70;91.80;;;;;;5051476;28;20395;-67
2022/11/01 08:06:52;;;;;;;4.32;3.80;;;29.20;90.90;;;;;;5051858;28;20056;-67
2022/11/01 08:09:56;;;;;;;4.63;3.70;;;29.60;90.40;;;;;;5051442;28;20503;-67
2022/11/01 08:13:01;;;;;;;6.40;3.95;;;29.60;90.00;;;;;;5051649;28;20396;-67
2022/11/01 08:16:06;;;;;;;6.38;4.18;;;29.70;89.90;;;;;;5051315;28;20056;-67
2022/11/01 08:19:10;;;;;;;5.43;3.83;;;31.20;88.30;;;;;;5051632;28;20040;-67
2022/11/01 08:22:14;;;;;;;5.75;4.50;;;32.10;86.10;;;;;;5051516;28;20040;-67
2022/11/01 08:25:18;;;;;;;7.65;4.32;;;32.10;85.20;;;;;;5051137;28;20115;-67
2022/11/01 08:28:22;;;;;;;7.13;3.97;;;32.60;83.70;;;;;;5051553;28;20040;-68
2022/11/01 08:31:26;;;;;;;7.95;4.45;;;33.30;83.40;;;;;;5051601;28;20044;-68
2022/11/01 08:34:30;;;;;;;6.20;3.05;;;32.60;82.30;;;;;;5051087;28;20044;-67
2022/11/01 08:37:35;;;;;;;6.15;3.10;;;32.00;82.90;;;;;;5051283;28;20040;-67
2022/11/01 08:40:39;;;;;;;5.70;2.53;;;31.30;83.60;;;;;;5051398;28;20060;-67
2022/11/01 08:43:44;;;;;;;3.33;2.53;;;28.10;87.30;;;;;;5051013;28;20052;-67
2022/11/01 08:46:52;;;;;;;3.65;3.00;;;26.40;90.00;;;;;;5051058;28;20065;-67
2022/11/01 08:49:55;;;;;;;4.45;3.00;;;25.90;91.10;;;;;;5051043;28;20510;-67
2022/11/01 08:53:12;;;;;;;5.35;3.58;;;26.20;91.00;;;;;;5038792;28;20411;-67
2022/11/01 08:56:18;;;;;;;3.60;3.15;;;27.40;89.70;;;;;;5051137;28;20045;-67
2022/11/01 08:59:22;;;;;;;5.97;3.72;;;28.80;89.10;;;;;;5051518;28;20036;-67
2022/11/01 09:02:27;;;;;;;3.65;3.28;;;30.60;86.30;;;;;;5050931;28;20495;-67
2022/11/01 09:05:31;;;;;;;5.93;4.50;;;31.10;84.80;;;;;;5050782;28;20044;-67
2022/11/01 09:08:35;;;;;;;9.73;4.88;;;31.80;83.90;;;;;;5050784;28;20036;-68
2022/11/01 09:11:39;;;;;;;5.43;3.85;;;32.80;82.70;;;;;;5051029;28;20108;-67
2022/11/01 09:14:43;;;;;;;6.53;4.72;;;33.50;81.70;;;;;;5050585;28;20396;-67
2022/11/01 09:17:47;;;;;;;9.27;5.70;;;32.60;81.00;;;;;;5050868;28;20069;-68
2022/11/01 09:20:55;;;;;;;12.55;8.70;;;31.60;81.90;;;;;;5053185;28;20383;-67
2022/11/01 09:23:59;;;;;;;15.70;9.77;;;31.30;82.40;;;;;;5054483;28;20040;-67
2022/11/01 09:27:03;;;;;;;11.50;8.82;;;31.30;83.60;;;;;;5054649;28;20483;-67
2022/11/01 09:30:07;;;;;;;13.20;8.48;;;31.40;82.50;;;;;;5054748;28;20048;-67
2022/11/01 09:33:11;;;;;;;20.85;13.18;;;28.20;86.10;;;;;;5054491;28;20036;-67
2022/11/01 09:36:15;;;;;;;15.98;11.65;;;28.20;89.00;;;;;;5054512;28;20048;-67
2022/11/01 09:39:20;;;;;;;15.85;9.70;;;27.80;88.20;;;;;;5054371;28;20044;-67
2022/11/01 09:42:39;;;;;;;17.85;11.02;;;28.00;87.70;;;;;;5054243;28;20040;-67
2022/11/01 09:45:43;;;;;;;9.93;7.13;;;29.30;87.90;;;;;;5054094;28;20044;-68
2022/11/01 09:48:48;;;;;;;11.52;7.53;;;29.00;87.20;;;;;;5054427;28;20048;-67
2022/11/01 09:51:52;;;;;;;10.82;6.50;;;29.10;87.70;;;;;;5054361;28;20036;-68
2022/11/01 09:54:57;;;;;;;9.63;6.10;;;30.20;86.40;;;;;;5053758;28;20036;-67
2022/11/01 09:58:16;;;;;;;10.73;5.63;;;32.00;83.90;;;;;;5053838;28;20048;-67
2022/11/01 10:01:22;;;;;;;8.88;6.75;;;33.30;82.60;;;;;;5054105;28;20044;-67
2022/11/01 10:05:06;;;;;;;11.35;6.78;;;30.30;83.80;;;;;;5053846;28;20048;-68
2022/11/01 10:08:28;;;;;;;8.57;6.22;;;27.80;87.60;;;;;;5053782;28;20036;-67
2022/11/01 10:11:35;;;;;;;9.50;6.20;;;27.80;88.30;;;;;;5053724;28;20063;-68
2022/11/01 10:14:53;;;;;;;12.82;5.60;;;28.80;88.70;;;;;;5053521;28;20048;-68
2022/11/01 10:18:08;;;;;;;6.53;5.68;;;30.70;86.50;;;;;;5053354;28;20044;-67
2022/11/01 10:21:15;;;;;;;8.95;5.07;;;29.90;85.20;;;;;;5053654;28;20040;-68
2022/11/01 10:24:33;;;;;;;8.55;5.45;;;31.50;85.10;;;;;;5053203;28;20048;-68
2022/11/01 10:27:44;;;;;;;4.80;4.07;;;34.10;83.00;;;;;;5053493;28;20048;-67
2022/11/01 10:30:56;;;;;;;6.50;4.85;;;35.10;81.00;;;;;;5052859;28;20542;-66
2022/11/01 10:34:18;;;;;;;8.95;4.80;;;36.00;79.70;;;;;;5053206;28;20047;-68
2022/11/01 10:37:42;;;;;;;8.50;5.18;;;34.40;79.30;;;;;;5053268;28;20044;-67
2022/11/01 10:41:04;;;;;;;9.60;6.13;;;32.40;80.60;;;;;;5053174;28;20048;-67
2022/11/01 10:44:32;;;;;;;9.75;5.45;;;30.90;83.60;;;;;;5053159;28;20392;-67
2022/11/01 10:47:37;;;;;;;11.57;6.10;;;32.50;83.30;;;;;;5052945;28;20040;-67
2022/11/01 10:50:43;;;;;;;8.50;5.20;;;33.70;81.60;;;;;;5052675;28;20044;-67
2022/11/01 10:53:53;;;;;;;6.45;5.20;;;34.30;81.30;;;;;;5052715;28;20399;-67
2022/11/01 10:57:07;;;;;;;6.80;4.72;;;34.90;80.60;;;;;;5052710;28;20044;-68
2022/11/01 11:00:19;;;;;;;9.30;5.57;;;34.70;79.90;;;;;;5052938;28;20043;-66
2022/11/01 11:03:28;;;;;;;7.75;4.82;;;35.00;79.80;;;;;;5052618;28;20036;-67
2022/11/01 11:06:34;;;;;;;11.88;5.20;;;36.10;79.10;;;;;;5052311;28;20497;-67
2022/11/01 11:09:38;;;;;;;11.65;6.53;;;36.60;78.00;;;;;;5052725;28;20398;-67
2022/11/01 11:12:43;;;;;;;9.30;5.80;;;35.70;77.90;;;;;;5052509;28;20047;-67
2022/11/01 11:16:03;;;;;;;9.90;5.10;;;35.60;78.00;;;;;;5052145;28;20040;-67
2022/11/01 11:19:06;;;;;;;6.85;4.85;;;34.70;77.70;;;;;;5052275;28;20040;-67
2022/11/01 11:22:12;;;;;;;8.75;5.28;;;36.50;77.30;;;;;;5052249;28;20052;-67
2022/11/01 11:25:22;;;;;;;8.70;4.53;;;38.80;75.70;;;;;;5051762;28;20052;-65
2022/11/01 11:28:30;;;;;;;10.60;4.70;;;37.30;73.70;;;;;;5052099;28;20048;-67
2022/11/01 11:31:34;;;;;;;10.60;5.10;;;34.80;75.20;;;;;;5051815;28;20036;-67
2022/11/01 11:34:40;;;;;;;8.52;4.80;;;35.80;77.10;;;;;;5051816;28;20044;-67
2022/11/01 11:38:03;;;;;;;8.90;4.22;;;35.70;76.40;;;;;;5051795;28;20119;-68
2022/11/01 11:41:09;;;;;;;9.13;4.15;;;37.40;75.50;;;;;;5051918;28;20048;-67
2022/11/01 11:44:39;;;;;;;8.57;4.60;;;38.90;73.20;;;;;;5051699;28;20044;-68
2022/11/01 11:47:46;;;;;;;6.07;4.70;;;37.40;72.20;;;;;;5051662;28;20040;-67
2022/11/01 11:51:01;;;;;;;10.02;4.25;;;38.00;73.00;;;;;;5051767;28;20052;-67
2022/11/01 11:54:21;;;;;;;9.10;4.43;;;37.20;74.40;;;;;;5051974;28;20056;-67
2022/11/01 11:57:28;;;;;;;;;;;36.90;73.90;;;;;;5051962;28;20040;-67
2022/11/01 12:00:36;;;;;;;8.60;4.20;;;34.80;75.40;;;;;;5051818;28;19904;-68
2022/11/01 12:03:48;;;;;;;6.88;4.05;;;35.10;75.70;;;;;;5051449;28;20040;-67
2022/11/01 12:06:51;;;;;;;8.00;3.72;;;34.20;75.60;;;;;;5051599;28;20047;-67
2022/11/01 12:10:01;;;;;;;8.48;4.10;;;33.80;77.50;;;;;;5051476;28;20044;-67
2022/11/01 12:13:31;;;;;;;7.83;3.40;;;34.90;77.10;;;;;;5051593;28;20044;-68
2022/11/01 12:16:40;;;;;;;9.13;4.43;;;36.10;73.90;;;;;;5051428;28;20040;-66
2022/11/01 12:19:44;;;;;;;7.35;3.90;;;34.30;74.60;;;;;;5051354;28;20032;-66
2022/11/01 12:22:59;;;;;;;8.85;4.63;;;34.00;74.60;;;;;;5051193;28;20047;-67
2022/11/01 12:26:10;;;;;;;7.18;4.13;;;32.00;79.20;;;;;;5051451;28;20500;-67
2022/11/01 12:29:39;;;;;;;7.53;4.10;;;32.50;79.70;;;;;;5051583;28;20040;-67
2022/11/01 12:32:47;;;;;;;9.38;4.38;;;32.30;80.40;;;;;;5051179;28;20056;-67
2022/11/01 12:35:55;;;;;;;5.93;3.97;;;32.90;80.00;;;;;;5051219;28;20036;-67
2022/11/01 12:39:15;;;;;;;8.23;4.15;;;32.70;79.30;;;;;;5051197;28;20048;-68
2022/11/01 12:42:27;;;;;;;7.93;4.25;;;32.40;79.40;;;;;;5051400;28;20040;-67
2022/11/01 12:46:03;;;;;;;8.05;3.88;;;33.60;79.40;;;;;;5050811;28;20040;-67
2022/11/01 12:49:30;;;;;;;9.35;3.80;;;32.60;78.80;;;;;;5051152;28;20155;-67
2022/11/01 12:52:54;;;;;;;15.30;5.05;;;31.20;80.80;;;;;;5051276;28;20044;-67
2022/11/01 12:55:58;;;;;;;9.90;4.28;;;30.90;83.50;;;;;;5053079;28;20395;-66
2022/11/01 12:59:04;;;;;;;7.88;3.97;;;29.70;84.60;;;;;;5054948;28;20044;-66
2022/11/01 13:02:27;;;;;;;8.52;4.13;;;28.00;87.30;;;;;;5055004;28;20108;-66
2022/11/01 13:05:49;;;;;;;8.38;4.43;;;27.70;89.50;;;;;;5054858;28;20052;-66
2022/11/01 13:08:59;;;;;;;8.48;3.72;;;27.10;90.60;;;;;;5054927;28;20044;-66
2022/11/01 13:12:19;;;;;;;12.48;4.43;;;28.10;90.10;;;;;;5054611;28;20392;-67
2022/11/01 13:15:41;;;;;;;8.80;3.90;;;28.80;89.20;;;;;;5054533;28;20400;-67
2022/11/01 13:18:55;;;;;;;8.50;4.10;;;28.20;88.50;;;;;;5054404;28;20044;-66
2022/11/01 13:22:13;;;;;;;7.53;4.03;;;28.20;89.30;;;;;;5054775;28;20483;-67
2022/11/01 13:26:06;;;;;;;9.65;4.30;;;28.70;88.20;;;;;;5054425;28;20044;-67
2022/11/01 13:29:22;;;;;;;8.70;4.10;;;28.70;89.20;;;;;;4976735;28;20525;-66
2022/11/01 13:32:38;;;;;;;8.93;4.40;;;28.00;90.20;;;;;;5054237;28;20032;-66
2022/11/01 13:36:13;;;;;;;8.70;4.13;;;28.50;90.00;;;;;;5054371;28;20044;-67
2022/11/01 13:39:28;;;;;;;8.40;4.60;;;28.60;90.20;;;;;;5054224;28;20585;-67
2022/11/01 13:42:54;;;;;;;13.02;4.82;;;28.60;90.20;;;;;;5054729;28;20036;-66
2022/11/01 13:46:16;;;;;;;21.02;5.25;;;28.00;90.90;;;;;;5054271;28;20048;-67
2022/11/01 13:49:35;;;;;;;9.93;4.40;;;27.50;91.50;;;;;;5054380;28;20044;-66
2022/11/01 13:53:03;;;;;;;11.85;4.60;;;27.30;91.70;;;;;;5054100;28;20036;-66
2022/11/01 13:56:51;;;;;;;8.63;4.15;;;27.30;91.80;;;;;;5054038;28;20838;-66
2022/11/01 13:59:55;;;;;;;7.25;3.90;;;27.80;91.20;;;;;;5030617;28;20048;-66
2022/11/01 14:03:00;;;;;;;9.10;3.10;;;28.20;89.30;;;;;;5053964;28;20044;-66
2022/11/01 14:06:10;;;;;;;10.07;5.50;;;27.70;88.90;;;;;;5053458;28;20040;-65
2022/11/01 14:09:24;;;;;;;17.20;5.78;;;26.50;91.80;;;;;;5054030;28;20518;-65
2022/11/01 14:12:39;;;;;;;13.15;6.45;;;24.90;94.00;;;;;;5053650;28;20538;-65
2022/11/01 14:15:52;;;;;;;13.63;6.70;;;24.40;95.40;;;;;;5053590;28;20044;-66
2022/11/01 14:19:02;;;;;;;12.27;6.03;;;24.20;95.90;;;;;;5053058;28;20047;-67
2022/11/01 14:22:26;;;;;;;14.93;7.10;;;24.00;96.60;;;;;;5052598;28;20056;-66
2022/11/01 14:25:31;;;;;;;51.55;8.30;;;23.80;98.10;;;;;;5053335;28;20040;-66
2022/11/01 14:28:42;;;;;;;29.73;7.47;;;23.70;98.90;;;;;;5053170;28;20495;-66
2022/11/01 14:31:51;;;;;;;26.20;6.93;;;23.50;99.20;;;;;;5053222;28;20392;-66
2022/11/01 14:35:17;;;;;;;14.23;6.05;;;23.40;99.90;;;;;;5053327;28;20040;-66
2022/11/01 14:38:35;;;;;;;14.73;6.78;;;23.10;99.90;;;;;;5052718;28;20044;-66
2022/11/01 14:41:41;;;;;;;13.20;6.68;;;23.00;99.90;;;;;;5053021;28;20036;-66
2022/11/01 14:44:51;;;;;;;16.40;9.10;;;22.80;99.90;;;;;;5052893;28;20040;-66
2022/11/01 14:47:59;;;;;;;19.40;11.55;;;22.70;99.90;;;;;;5052751;28;20526;-66
2022/11/01 14:51:34;;;;;;;32.70;17.55;;;22.60;99.90;;;;;;5052880;28;20083;-66
2022/11/01 14:54:40;;;;;;;40.08;18.88;;;22.40;99.90;;;;;;5053013;28;20048;-66
2022/11/01 14:57:47;;;;;;;28.80;16.23;;;22.40;99.90;;;;;;5052042;28;20044;-66
2022/11/01 15:00:53;;;;;;;23.77;11.90;;;22.30;99.90;;;;;;5052563;28;20036;-66
2022/11/01 15:04:00;;;;;;;19.80;7.65;;;22.30;99.90;;;;;;5052679;28;20491;-66
2022/11/01 15:07:22;;;;;;;16.58;6.30;;;22.10;99.90;;;;;;5052599;28;20509;-66
2022/11/01 15:10:27;;;;;;;14.40;5.13;;;22.10;99.90;;;;;;5052718;28;20407;-66
2022/11/01 15:13:37;;;;;;;11.52;4.95;;;21.90;99.90;;;;;;5052125;28;20047;-67
2022/11/01 15:16:42;;;;;;;19.67;9.50;;;21.80;99.90;;;;;;5052236;28;20044;-66
2022/11/01 15:19:47;;;;;;;16.58;8.90;;;21.70;99.90;;;;;;5052043;28;20055;-66
2022/11/01 15:22:56;;;;;;;17.33;7.38;;;21.70;99.90;;;;;;5052138;28;20503;-66
2022/11/01 15:26:05;;;;;;;16.92;9.15;;;21.70;99.90;;;;;;5051927;28;20047;-66
2022/11/01 15:29:14;;;;;;;14.23;7.82;;;21.60;99.90;;;;;;5052027;28;20044;-66
2022/11/01 15:32:33;;;;;;;14.63;6.32;;;21.50;99.90;;;;;;5051512;28;20063;-65
2022/11/01 15:35:38;;;;;;;18.58;6.70;;;21.30;99.90;;;;;;5051864;28;20183;-66
2022/11/01 15:38:54;;;;;;;12.95;6.40;;;21.10;99.90;;;;;;5051734;28;20068;-66
2022/11/01 15:42:00;;;;;;;14.77;5.97;;;21.00;99.90;;;;;;5052014;28;20040;-66
2022/11/01 15:45:28;;;;;;;16.60;6.20;;;20.70;99.90;;;;;;5052017;28;20052;-66
2022/11/01 15:48:35;;;;;;;10.70;4.97;;;20.60;99.90;;;;;;5051837;28;20068;-66
2022/11/01 15:51:44;;;;;;;9.73;5.35;;;20.30;99.90;;;;;;5051941;28;20048;-66
2022/11/01 15:54:54;;;;;;;10.75;5.68;;;20.10;99.90;;;;;;5051773;28;20068;-67
2022/11/01 15:58:20;;;;;;;10.45;5.32;;;19.70;99.90;;;;;;5051638;28;20052;-68
2022/11/01 16:01:25;;;;;;;18.00;6.13;;;19.70;99.90;;;;;;5051674;28;20408;-67
2022/11/01 16:04:38;;;;;;;22.73;9.82;;;19.50;99.90;;;;;;5051257;28;20044;-67
2022/11/01 16:07:43;;;;;;;19.25;10.02;;;19.30;99.90;;;;;;5051381;28;20040;-67
2022/11/01 16:10:48;;;;;;;14.77;9.27;;;19.10;99.90;;;;;;5051485;28;20510;-67
2022/11/01 16:14:06;;;;;;;14.05;6.30;;;19.00;99.90;;;;;;5039131;28;20040;-66
2022/11/01 16:17:22;;;;;;;13.38;5.75;;;18.90;99.90;;;;;;5051507;28;20044;-67
2022/11/01 16:20:36;;;;;;;17.38;5.13;;;18.80;99.90;;;;;;5051526;28;20406;-67
2022/11/01 16:23:55;;;;;;;12.23;5.80;;;18.70;99.90;;;;;;5050835;28;20044;-67
2022/11/01 16:27:03;;;;;;;21.33;6.80;;;18.70;99.90;;;;;;5051530;28;20052;-67